createdAt,value
2023-06-17T00:01:55.654Z,8.13
2023-06-17T00:04:26.230Z,8.13
2023-06-17T00:06:55.570Z,7.83
2023-06-17T00:09:24.633Z,9.03
2023-06-17T00:11:53.899Z,10.33
2023-06-17T00:14:23.838Z,11.63
2023-06-17T00:16:52.978Z,11.13
2023-06-17T00:19:23.960Z,9.40
2023-06-17T00:22:25.987Z,7.00
2023-06-17T00:24:55.401Z,9.03
2023-06-17T00:27:24.399Z,7.40
2023-06-17T00:29:53.892Z,11.23
2023-06-17T00:32:23.174Z,8.97
2023-06-17T00:34:52.296Z,8.27
2023-06-17T00:37:21.434Z,10.40
2023-06-17T00:39:51.988Z,7.90
2023-06-17T00:42:21.591Z,8.57
2023-06-17T00:44:50.705Z,8.67
2023-06-17T00:47:20.173Z,8.87
2023-06-17T00:49:50.755Z,8.67
2023-06-17T00:52:35.483Z,8.67
2023-06-17T00:55:12.340Z,8.47
2023-06-17T00:57:42.069Z,8.63
2023-06-17T01:00:13.021Z,8.33
2023-06-17T01:02:46.282Z,9.67
2023-06-17T01:05:19.587Z,9.07
2023-06-17T01:08:04.172Z,10.63
2023-06-17T01:10:41.515Z,7.67
2023-06-17T01:13:11.753Z,9.77
2023-06-17T01:15:41.468Z,9.30
2023-06-17T01:18:12.697Z,8.57
2023-06-17T01:20:43.555Z,9.73
2023-06-17T01:23:15.494Z,9.73
2023-06-17T01:25:50.877Z,10.43
2023-06-17T01:28:21.323Z,7.30
2023-06-17T01:30:56.639Z,9.80
2023-06-17T01:33:27.234Z,8.60
2023-06-17T01:36:01.762Z,8.50
2023-06-17T01:38:37.104Z,8.60
2023-06-17T01:41:17.587Z,9.60
2023-06-17T01:43:47.561Z,10.90
2023-06-17T01:46:18.114Z,9.27
2023-06-17T01:48:47.385Z,10.90
2023-06-17T01:51:16.632Z,7.93
2023-06-17T01:53:46.004Z,16.40
2023-06-17T01:56:17.051Z,13.77
2023-06-17T01:58:46.463Z,8.93
2023-06-17T02:01:15.733Z,10.30
2023-06-17T02:03:45.485Z,11.43
2023-06-17T02:06:14.593Z,8.60
2023-06-17T02:08:45.291Z,10.20
2023-06-17T02:11:16.062Z,8.57
2023-06-17T02:13:45.503Z,9.23
2023-06-17T02:16:14.625Z,8.10
2023-06-17T02:18:45.318Z,10.40
2023-06-17T02:21:14.426Z,9.40
2023-06-17T02:23:49.696Z,10.47
2023-06-17T02:26:20.853Z,11.33
2023-06-17T02:28:51.881Z,10.10
2023-06-17T02:31:21.026Z,9.47
2023-06-17T02:33:50.176Z,9.97
2023-06-17T02:36:20.373Z,9.73
2023-06-17T02:38:51.405Z,9.40
2023-06-17T02:41:22.238Z,10.80
2023-06-17T02:43:51.397Z,10.30
2023-06-17T02:46:20.604Z,10.40
2023-06-17T02:48:49.637Z,10.20
2023-06-17T02:51:18.781Z,9.40
2023-06-17T02:53:48.354Z,9.03
2023-06-17T02:56:22.322Z,12.00
2023-06-17T02:58:51.862Z,10.00
2023-06-17T03:01:22.792Z,10.30
2023-06-17T03:03:56.369Z,11.93
2023-06-17T03:06:26.231Z,11.97
2023-06-17T03:08:56.258Z,12.10
2023-06-17T03:11:27.052Z,11.33
2023-06-17T03:13:56.319Z,11.63
2023-06-17T03:16:35.254Z,10.77
2023-06-17T03:19:05.497Z,10.47
2023-06-17T03:21:42.065Z,11.60
2023-06-17T03:24:12.292Z,15.63
2023-06-17T03:26:42.992Z,11.47
2023-06-17T03:29:12.283Z,11.73
2023-06-17T03:31:41.401Z,11.20
2023-06-17T03:34:11.635Z,8.23
2023-06-17T03:36:41.173Z,11.60
2023-06-17T03:39:10.572Z,10.73
2023-06-17T03:41:41.566Z,11.83
2023-06-17T03:44:10.818Z,11.53
2023-06-17T03:46:40.863Z,10.20
2023-06-17T03:49:09.969Z,11.70
2023-06-17T03:51:39.351Z,13.03
2023-06-17T03:54:08.563Z,13.37
2023-06-17T03:56:39.026Z,11.90
2023-06-17T03:59:10.125Z,13.00
2023-06-17T04:01:39.521Z,13.60
2023-06-17T04:04:08.778Z,13.03
2023-06-17T04:06:38.210Z,11.10
2023-06-17T04:09:07.491Z,15.27
2023-06-17T04:11:37.241Z,12.17
2023-06-17T04:14:06.530Z,14.17
2023-06-17T04:16:37.434Z,13.27
2023-06-17T04:19:07.030Z,13.70
2023-06-17T04:21:39.992Z,16.07
2023-06-17T04:24:09.213Z,15.93
2023-06-17T04:26:39.317Z,17.93
2023-06-17T04:29:09.716Z,16.13
2023-06-17T04:31:41.949Z,18.17
2023-06-17T04:34:13.862Z,19.27
2023-06-17T04:36:43.562Z,19.73
2023-06-17T04:39:13.639Z,17.57
2023-06-17T04:41:47.487Z,18.00
2023-06-17T04:44:17.114Z,18.77
2023-06-17T04:46:49.549Z,17.83
2023-06-17T04:49:19.093Z,19.53
2023-06-17T04:51:49.836Z,19.40
2023-06-17T04:54:19.634Z,17.03
2023-06-17T04:56:49.842Z,19.17
2023-06-17T04:59:20.287Z,18.93
2023-06-17T05:01:51.591Z,21.50
2023-06-17T05:04:20.716Z,20.23
2023-06-17T05:06:49.729Z,16.53
2023-06-17T05:09:19.801Z,22.23
2023-06-17T05:11:49.092Z,20.67
2023-06-17T05:14:18.390Z,15.60
2023-06-17T05:16:47.566Z,18.50
2023-06-17T05:19:18.270Z,17.27
2023-06-17T05:21:48.309Z,18.53
2023-06-17T05:24:21.066Z,22.77
2023-06-17T05:26:50.301Z,17.43
2023-06-17T05:29:19.882Z,16.63
2023-06-17T05:31:55.288Z,19.90
2023-06-17T05:34:26.660Z,18.67
2023-06-17T05:36:55.964Z,20.57
2023-06-17T05:39:25.054Z,20.30
2023-06-17T05:41:54.214Z,21.10
2023-06-17T05:44:23.251Z,19.47
2023-06-17T05:46:53.786Z,18.13
2023-06-17T05:49:24.332Z,17.20
2023-06-17T05:51:54.113Z,20.73
2023-06-17T05:54:23.466Z,19.17
2023-06-17T05:56:52.762Z,17.80
2023-06-17T05:59:22.740Z,20.17
2023-06-17T06:01:52.951Z,17.10
2023-06-17T06:04:22.399Z,18.27
2023-06-17T06:06:52.897Z,18.90
2023-06-17T06:09:22.046Z,18.30
2023-06-17T06:11:51.461Z,19.00
2023-06-17T06:14:20.870Z,18.73
2023-06-17T06:16:51.381Z,19.33
2023-06-17T06:19:20.560Z,18.43
2023-06-17T06:21:51.218Z,17.40
2023-06-17T06:24:20.605Z,19.30
2023-06-17T06:26:49.750Z,17.70
2023-06-17T06:29:19.020Z,18.57
2023-06-17T06:31:48.344Z,17.77
2023-06-17T06:34:20.040Z,17.57
2023-06-17T06:36:49.227Z,18.10
2023-06-17T06:39:19.963Z,20.17
2023-06-17T06:41:49.871Z,18.80
2023-06-17T06:44:31.504Z,18.40
2023-06-17T06:47:00.807Z,18.33
2023-06-17T06:49:29.890Z,18.57
2023-06-17T06:51:58.973Z,18.77
2023-06-17T06:54:29.532Z,17.40
2023-06-17T06:56:58.662Z,18.20
2023-06-17T06:59:29.519Z,18.73
2023-06-17T07:01:58.635Z,19.37
2023-06-17T07:04:28.285Z,18.60
2023-06-17T07:07:00.890Z,19.47
2023-06-17T07:09:36.128Z,20.67
2023-06-17T07:12:06.259Z,20.53
2023-06-17T07:14:38.622Z,18.60
2023-06-17T07:17:08.967Z,20.23
2023-06-17T07:19:38.256Z,19.20
2023-06-17T07:22:11.023Z,20.40
2023-06-17T07:24:41.691Z,20.67
2023-06-17T07:27:11.763Z,19.83
2023-06-17T07:29:41.120Z,19.90
2023-06-17T07:32:10.535Z,20.07
2023-06-17T07:34:39.724Z,18.70
2023-06-17T07:37:08.770Z,21.23
2023-06-17T07:39:38.000Z,19.83
2023-06-17T07:42:09.005Z,21.27
2023-06-17T07:45:05.064Z,20.23
2023-06-17T07:47:34.223Z,22.30
2023-06-17T07:50:03.252Z,20.40
2023-06-17T07:52:36.111Z,19.70
2023-06-17T07:55:08.228Z,23.60
2023-06-17T07:57:39.184Z,21.57
2023-06-17T08:00:14.040Z,19.10
2023-06-17T08:02:46.301Z,18.37
2023-06-17T08:05:15.577Z,18.60
2023-06-17T08:07:44.632Z,20.70
2023-06-17T08:10:13.806Z,18.10
2023-06-17T08:12:45.575Z,17.50
2023-06-17T08:15:14.759Z,17.23
2023-06-17T08:17:43.869Z,18.07
2023-06-17T08:20:15.261Z,17.77
2023-06-17T08:22:44.400Z,18.90
2023-06-17T08:25:13.430Z,18.20
2023-06-17T08:27:48.759Z,19.80
2023-06-17T08:30:18.630Z,18.40
2023-06-17T08:32:48.472Z,18.37
2023-06-17T08:35:17.875Z,18.03
2023-06-17T08:37:47.079Z,19.07
2023-06-17T08:40:17.191Z,16.70
2023-06-17T08:42:50.125Z,17.80
2023-06-17T08:45:19.604Z,18.50
2023-06-17T08:47:48.724Z,19.00
2023-06-17T08:50:18.623Z,18.80
2023-06-17T08:52:49.505Z,18.10
2023-06-17T08:55:19.092Z,21.63
2023-06-17T08:57:52.252Z,16.60
2023-06-17T09:00:21.974Z,17.63
2023-06-17T09:02:53.016Z,18.10
2023-06-17T09:05:22.213Z,18.83
2023-06-17T09:07:51.497Z,18.27
2023-06-17T09:10:22.345Z,19.33
2023-06-17T09:12:53.506Z,21.17
2023-06-17T09:15:22.873Z,18.33
2023-06-17T09:17:53.660Z,18.87
2023-06-17T09:20:23.577Z,18.17
2023-06-17T09:22:52.871Z,17.53
2023-06-17T09:25:23.825Z,18.17
2023-06-17T09:30:27.419Z,18.17
2023-06-17T09:32:57.032Z,19.13
2023-06-17T09:35:26.242Z,19.53
2023-06-17T09:38:03.056Z,17.10
2023-06-17T09:40:35.768Z,16.13
2023-06-17T09:43:25.850Z,17.70
2023-06-17T09:46:02.340Z,18.33
2023-06-17T09:48:35.028Z,18.03
2023-06-17T09:51:06.702Z,17.40
2023-06-17T09:53:38.502Z,16.10
2023-06-17T09:56:12.518Z,16.67
2023-06-17T09:58:44.986Z,17.00
2023-06-17T10:01:15.200Z,18.70
2023-06-17T10:03:44.558Z,16.53
2023-06-17T10:06:15.076Z,16.67
2023-06-17T10:08:46.262Z,16.60
2023-06-17T10:11:17.364Z,15.77
2023-06-17T10:13:55.636Z,14.63
2023-06-17T10:16:27.752Z,13.30
2023-06-17T10:19:00.023Z,13.50
2023-06-17T10:21:31.587Z,15.20
2023-06-17T10:24:03.083Z,13.93
2023-06-17T10:26:33.307Z,15.30
2023-06-17T10:29:08.120Z,13.77
2023-06-17T10:31:41.196Z,12.83
2023-06-17T10:34:15.845Z,13.57
2023-06-17T10:36:49.676Z,15.53
2023-06-17T10:39:18.953Z,12.77
2023-06-17T10:41:59.177Z,14.93
2023-06-17T10:44:42.056Z,14.60
2023-06-17T10:47:24.389Z,15.00
2023-06-17T10:49:56.469Z,13.00
2023-06-17T10:52:25.819Z,14.87
2023-06-17T10:54:56.792Z,12.93
2023-06-17T10:57:34.179Z,11.83
2023-06-17T11:00:11.557Z,13.00
2023-06-17T11:02:41.568Z,14.37
2023-06-17T11:05:11.606Z,16.53
2023-06-17T11:07:40.681Z,13.73
2023-06-17T11:10:10.520Z,14.70
2023-06-17T11:12:40.782Z,14.63
2023-06-17T11:15:11.840Z,14.73
2023-06-17T11:17:40.865Z,12.57
2023-06-17T11:20:13.193Z,12.67
2023-06-17T11:22:42.423Z,14.63
2023-06-17T11:25:13.071Z,15.30
2023-06-17T11:27:42.687Z,17.40
2023-06-17T11:30:15.640Z,17.07
2023-06-17T11:32:45.138Z,17.67
2023-06-17T11:35:15.120Z,16.53
2023-06-17T11:37:44.552Z,17.13
2023-06-17T11:40:14.902Z,15.20
2023-06-17T11:42:44.742Z,14.63
2023-06-17T11:45:16.427Z,14.30
2023-06-17T11:47:45.833Z,13.80
2023-06-17T11:50:15.457Z,12.07
2023-06-17T11:52:54.318Z,11.70
2023-06-17T11:55:30.698Z,10.73
2023-06-17T11:58:00.203Z,11.17
2023-06-17T12:00:31.288Z,9.90
2023-06-17T12:03:01.168Z,8.57
2023-06-17T12:05:30.731Z,7.97
2023-06-17T12:08:02.100Z,7.60
2023-06-17T12:10:31.223Z,6.97
2023-06-17T12:13:00.810Z,7.70
2023-06-17T12:15:36.893Z,7.20
2023-06-17T12:18:14.462Z,5.20
2023-06-17T12:20:51.694Z,7.30
2023-06-17T12:23:21.223Z,7.13
2023-06-17T12:25:50.532Z,7.80
2023-06-17T12:28:23.850Z,7.40
2023-06-17T12:30:54.465Z,8.10
2023-06-17T12:33:23.500Z,7.50
2023-06-17T12:35:53.699Z,8.37
2023-06-17T12:38:26.952Z,8.93
2023-06-17T12:40:56.160Z,9.57
2023-06-17T12:43:25.131Z,8.90
2023-06-17T12:45:55.660Z,9.43
2023-06-17T12:48:25.725Z,9.60
2023-06-17T12:50:54.779Z,10.13
2023-06-17T12:53:24.435Z,9.10
2023-06-17T12:55:56.471Z,8.77
2023-06-17T12:58:26.397Z,9.87
2023-06-17T13:00:57.488Z,8.40
2023-06-17T13:03:26.635Z,9.90
2023-06-17T13:05:55.660Z,10.23
2023-06-17T13:08:24.877Z,7.47
2023-06-17T13:10:53.873Z,9.37
2023-06-17T13:13:23.133Z,9.20
2023-06-17T13:15:53.670Z,7.87
2023-06-17T13:18:24.242Z,8.20
2023-06-17T13:20:53.720Z,9.50
2023-06-17T13:23:22.781Z,10.87
2023-06-17T13:25:51.888Z,8.70
2023-06-17T13:28:21.823Z,8.23
2023-06-17T13:30:52.266Z,10.23
2023-06-17T13:33:21.392Z,11.57
2023-06-17T13:35:52.397Z,10.70
2023-06-17T13:38:21.751Z,9.17
2023-06-17T13:40:50.798Z,10.80
2023-06-17T13:43:19.998Z,12.37
2023-06-17T13:45:49.650Z,10.97
2023-06-17T13:48:20.353Z,13.60
2023-06-17T13:50:51.122Z,9.83
2023-06-17T13:53:20.226Z,11.00
2023-06-17T13:55:49.807Z,9.70
2023-06-17T13:58:18.934Z,9.20
2023-06-17T14:00:48.029Z,10.83
2023-06-17T14:03:18.384Z,7.90
2023-06-17T14:05:50.583Z,8.53
2023-06-17T14:08:22.148Z,7.40
2023-06-17T14:10:52.800Z,7.63
2023-06-17T14:13:21.876Z,7.00
2023-06-17T14:15:51.096Z,7.97
2023-06-17T14:18:20.333Z,7.20
2023-06-17T14:20:50.830Z,7.10
2023-06-17T14:23:19.915Z,6.93
2023-06-17T14:25:48.913Z,6.70
2023-06-17T14:28:19.790Z,5.93
2023-06-17T14:30:49.715Z,6.50
2023-06-17T14:33:18.780Z,5.93
2023-06-17T14:35:47.842Z,7.50
2023-06-17T14:38:18.345Z,6.87
2023-06-17T14:40:47.468Z,7.87
2023-06-17T14:43:16.499Z,6.90
2023-06-17T14:45:45.590Z,7.80
2023-06-17T14:48:14.827Z,7.43
2023-06-17T14:50:43.863Z,8.57
2023-06-17T14:53:12.923Z,8.47
2023-06-17T14:55:43.612Z,7.50
2023-06-17T14:58:12.921Z,8.67
2023-06-17T15:00:42.464Z,8.77
2023-06-17T15:03:11.830Z,8.67
2023-06-17T15:05:40.943Z,8.73
2023-06-17T15:08:11.092Z,7.30
2023-06-17T15:10:40.238Z,7.30
2023-06-17T15:13:10.890Z,8.80
2023-06-17T15:15:45.367Z,10.37
2023-06-17T15:18:15.003Z,8.70
2023-06-17T15:20:44.082Z,10.23
2023-06-17T15:23:13.158Z,8.57
2023-06-17T15:25:42.177Z,9.37
2023-06-17T15:28:12.665Z,12.60
2023-06-17T15:30:41.890Z,9.03
2023-06-17T15:33:10.936Z,9.83
2023-06-17T15:35:40.158Z,8.77
2023-06-17T15:38:09.322Z,7.60
2023-06-17T15:40:38.617Z,10.13
2023-06-17T15:43:07.764Z,6.80
2023-06-17T15:45:38.277Z,6.83
2023-06-17T15:48:07.832Z,7.37
2023-06-17T15:50:38.011Z,11.00
2023-06-17T15:53:07.140Z,7.37
2023-06-17T15:55:37.323Z,8.07
2023-06-17T15:58:06.657Z,7.30
2023-06-17T16:00:37.098Z,7.77
2023-06-17T16:03:06.564Z,7.43
2023-06-17T16:05:35.655Z,8.90
2023-06-17T16:08:04.678Z,7.87
2023-06-17T16:10:33.732Z,8.37
2023-06-17T16:13:02.721Z,7.50
2023-06-17T16:15:32.539Z,7.43
2023-06-17T16:18:03.054Z,7.83
2023-06-17T16:20:32.113Z,8.60
2023-06-17T16:23:01.065Z,8.17
2023-06-17T16:25:40.903Z,8.10
2023-06-17T16:28:19.211Z,8.70
2023-06-17T16:30:48.191Z,8.30
2023-06-17T16:33:19.004Z,9.37
2023-06-17T16:35:48.065Z,8.53
2023-06-17T16:38:17.094Z,8.30
2023-06-17T16:40:46.293Z,7.73
2023-06-17T16:43:15.668Z,8.10
2023-06-17T16:45:44.697Z,7.87
2023-06-17T16:48:13.890Z,8.37
2023-06-17T16:50:44.386Z,6.90
2023-06-17T16:53:17.699Z,7.57
2023-06-17T16:55:47.577Z,7.23
2023-06-17T16:58:16.668Z,7.80
2023-06-17T17:00:46.053Z,7.57
2023-06-17T17:03:15.210Z,8.07
2023-06-17T17:05:45.894Z,8.27
2023-06-17T17:08:16.003Z,6.63
2023-06-17T17:10:45.172Z,7.33
2023-06-17T17:13:14.244Z,7.57
2023-06-17T17:15:43.301Z,8.10
2023-06-17T17:18:12.342Z,8.60
2023-06-17T17:20:41.489Z,7.30
2023-06-17T17:23:12.309Z,7.53
2023-06-17T17:25:41.619Z,6.60
2023-06-17T17:28:10.577Z,7.77
2023-06-17T17:30:40.421Z,7.03
2023-06-17T17:33:09.754Z,7.60
2023-06-17T17:35:38.835Z,7.40
2023-06-17T17:38:08.638Z,7.67
2023-06-17T17:40:39.160Z,7.10
2023-06-17T17:43:08.353Z,12.40
2023-06-17T17:45:37.418Z,6.50
2023-06-17T17:48:06.962Z,7.70
2023-06-17T17:50:36.201Z,8.30
2023-06-17T17:53:05.243Z,7.33
2023-06-17T17:55:34.288Z,9.33
2023-06-17T17:58:04.883Z,8.33
2023-06-17T18:00:34.072Z,7.30
2023-06-17T18:03:03.254Z,7.60
2023-06-17T18:05:32.609Z,8.10
2023-06-17T18:08:01.724Z,8.30
2023-06-17T18:10:30.758Z,8.70
2023-06-17T18:12:59.835Z,8.60
2023-06-17T18:15:30.430Z,8.07
2023-06-17T18:17:59.609Z,8.50
2023-06-17T18:20:28.698Z,10.17
2023-06-17T18:22:57.783Z,8.47
2023-06-17T18:25:26.826Z,8.73
2023-06-17T18:27:56.025Z,7.70
2023-06-17T18:30:25.177Z,8.83
2023-06-17T18:32:55.565Z,9.10
2023-06-17T18:35:24.845Z,9.27
2023-06-17T18:37:53.841Z,10.50
2023-06-17T18:40:23.086Z,9.30
2023-06-17T18:42:52.354Z,8.83
2023-06-17T18:45:21.528Z,10.53
2023-06-17T18:47:50.764Z,9.70
2023-06-17T18:50:21.657Z,9.43
2023-06-17T18:52:51.291Z,9.93
2023-06-17T18:55:20.416Z,10.30
2023-06-17T18:57:49.586Z,14.37
2023-06-17T19:00:19.315Z,14.17
2023-06-17T19:03:13.396Z,10.30
2023-06-17T19:05:44.324Z,10.93
2023-06-17T19:08:13.561Z,14.00
2023-06-17T19:10:42.580Z,11.07
2023-06-17T19:13:11.701Z,11.30
2023-06-17T19:15:41.038Z,11.67
2023-06-17T19:18:10.179Z,11.77
2023-06-17T19:20:40.023Z,13.70
2023-06-17T19:23:11.146Z,10.53
2023-06-17T19:25:40.228Z,10.60
2023-06-17T19:28:09.339Z,10.50
2023-06-17T19:30:38.337Z,10.37
2023-06-17T19:33:07.598Z,11.83
2023-06-17T19:35:36.718Z,10.57
2023-06-17T19:38:05.852Z,11.73
2023-06-17T19:40:36.409Z,13.80
2023-06-17T19:43:06.033Z,10.93
2023-06-17T19:45:37.151Z,12.50
2023-06-17T19:48:06.873Z,12.83
2023-06-17T19:50:37.376Z,12.10
2023-06-17T19:53:06.914Z,13.20
2023-06-17T19:55:38.541Z,14.23
2023-06-17T19:58:07.691Z,13.80
2023-06-17T20:00:38.398Z,14.50
2023-06-17T20:03:07.829Z,13.77
2023-06-17T20:05:36.903Z,14.20
2023-06-17T20:08:06.274Z,15.20
2023-06-17T20:10:38.744Z,14.20
2023-06-17T20:13:08.096Z,13.83
2023-06-17T20:15:38.193Z,13.73
2023-06-17T20:18:08.505Z,15.63
2023-06-17T20:20:37.605Z,15.10
2023-06-17T20:23:06.760Z,16.97
2023-06-17T20:25:37.269Z,20.97
2023-06-17T20:28:06.630Z,17.27
2023-06-17T20:30:35.842Z,15.47
2023-06-17T20:33:04.878Z,18.03
2023-06-17T20:35:34.014Z,17.90
2023-06-17T20:38:03.100Z,17.97
2023-06-17T20:40:32.416Z,16.13
2023-06-17T20:43:04.912Z,18.23
2023-06-17T20:45:34.018Z,18.77
2023-06-17T20:48:03.080Z,18.60
2023-06-17T20:50:32.472Z,18.17
2023-06-17T20:53:01.479Z,20.47
2023-06-17T20:55:31.796Z,18.60
2023-06-17T20:58:00.954Z,21.23
2023-06-17T21:00:31.470Z,22.30
2023-06-17T21:03:01.151Z,21.07
2023-06-17T21:05:30.232Z,22.33
2023-06-17T21:08:01.443Z,21.03
2023-06-17T21:10:30.969Z,21.40
2023-06-17T21:13:00.247Z,20.90
2023-06-17T21:15:30.584Z,18.03
2023-06-17T21:18:01.922Z,21.37
2023-06-17T21:20:32.477Z,21.40
2023-06-17T21:23:02.147Z,22.37
2023-06-17T21:25:31.194Z,23.97
2023-06-17T21:28:00.155Z,22.60
2023-06-17T21:30:30.757Z,27.30
2023-06-17T21:33:00.003Z,28.20
2023-06-17T21:35:29.058Z,26.50
2023-06-17T21:37:59.254Z,32.00
2023-06-17T21:40:28.400Z,27.20
2023-06-17T21:42:57.741Z,25.80
2023-06-17T21:45:26.727Z,25.23
2023-06-17T21:47:57.295Z,25.93
2023-06-17T21:50:27.216Z,26.10
2023-06-17T21:52:57.395Z,41.13
2023-06-17T21:55:26.668Z,29.73
2023-06-17T21:57:55.834Z,28.30
2023-06-17T22:00:25.040Z,27.40
2023-06-17T22:02:54.053Z,27.20
2023-06-17T22:05:24.726Z,29.47
2023-06-17T22:07:54.207Z,27.17
2023-06-17T22:10:23.781Z,27.37
2023-06-17T22:12:53.012Z,27.00
2023-06-17T22:15:22.089Z,27.97
2023-06-17T22:17:51.469Z,27.50
2023-06-17T22:20:21.105Z,27.70
2023-06-17T22:22:51.902Z,27.47
2023-06-17T22:25:21.068Z,25.80
2023-06-17T22:27:50.424Z,31.43
2023-06-17T22:30:19.788Z,28.27
2023-06-17T22:32:49.179Z,31.00
2023-06-17T22:35:18.425Z,29.13
2023-06-17T22:37:47.595Z,32.80
2023-06-17T22:40:18.128Z,28.57
2023-06-17T22:42:47.225Z,29.90
2023-06-17T22:45:16.544Z,26.60
2023-06-17T22:47:45.860Z,28.90
2023-06-17T22:50:14.885Z,26.07
2023-06-17T22:52:44.003Z,29.07
2023-06-17T22:55:12.995Z,28.80
2023-06-17T22:57:43.616Z,30.23
2023-06-17T23:00:14.411Z,30.57
2023-06-17T23:02:43.581Z,27.90
2023-06-17T23:05:12.689Z,29.47
2023-06-17T23:07:41.885Z,28.77
2023-06-17T23:10:11.374Z,29.23
2023-06-17T23:12:40.534Z,30.90
2023-06-17T23:15:11.840Z,29.00
2023-06-17T23:17:41.062Z,24.50
2023-06-17T23:20:12.019Z,26.13
2023-06-17T23:22:41.690Z,27.97
2023-06-17T23:25:11.313Z,30.40
2023-06-17T23:27:41.822Z,28.63
2023-06-17T23:30:14.816Z,29.00
2023-06-17T23:32:44.380Z,26.90
2023-06-17T23:35:13.467Z,28.10
2023-06-17T23:37:43.028Z,27.67
2023-06-17T23:40:12.710Z,28.93
2023-06-17T23:42:41.793Z,29.53
2023-06-17T23:45:15.443Z,29.20
2023-06-17T23:47:44.827Z,28.60
2023-06-17T23:50:13.921Z,29.67
2023-06-17T23:52:43.018Z,31.93
2023-06-17T23:55:12.275Z,29.30
2023-06-17T23:57:41.494Z,31.60
